Bowman Field
KLOU : now visible

Airfield :











YOU CAN JOIN US ON...

 
LOGIN :

Register | Disclaimer

   EN    FR    IT 

 









Legend :    VFR   Marginal VFR   IFR   Intensive IFR   Very Intensive IFR
Visi :
Ceiling :
>= 8 km
>= 3000ft
5 to 8 km
1000 to 3000 ft
1500m to 5 km
500 to 1000 ft
800 to 1500m
200 to 500 ft
< 800m
< 200 ft
Symbols :   Thunderstorms  Fog  Heavy snow  Heavy precipitations  Wind > 20 kt







- Airport Elevation : 546 ft


KLOU - Bowman Field

CURRENT METAR :
  • 210353Z AUTO 22004KT 8SM OVC080 07/06 A2991 RMK AO2 SLP129 T00670056 TSNO

EXPIRED METARs :
  • 210253Z AUTO 22003KT 10SM FEW012 SCT070 OVC090 07/06 A2990 RMK AO2 SLP126 60000 T00670056 51021 TSNO
  • 210153Z AUTO 25003KT 10SM FEW010 SCT015 OVC047 07/05 A2989 RMK AO2 RAE23 SLP122 P0000 T00670050 TSNO

TAF N/A
KZID FIR / North America



MET'MAP, your aeronautical weather chart ! - Copyright ORBIFLY December 2007 - Disclaimer

ORBIFLY MET'MAP TEAM :

Programming & Development : Alexandra Zaïnal
Concept & Development : Baudouin d'Aumeries
Co-Development & Prog : Marc-Olivier Méhu
Technical & hardware support : Manuel Goepfert

Contact : metmap@orbifly.com




SOURCES & CREDITS :

   NOAA       Earth
Advisory